sensor_id;sensor_type;location;lat;lon;timestamp;P1;durP1;ratioP1;P2;durP2;ratioP2
6376;SDS011;3221;48.858;10.128;2024-01-30T00:00:45;3.90;;;3.00;;
6376;SDS011;3221;48.858;10.128;2024-01-30T00:03:12;3.90;;;2.90;;
6376;SDS011;3221;48.858;10.128;2024-01-30T00:05:39;4.50;;;3.33;;
6376;SDS011;3221;48.858;10.128;2024-01-30T00:08:06;3.37;;;3.00;;
6376;SDS011;3221;48.858;10.128;2024-01-30T00:10:33;3.53;;;2.67;;
6376;SDS011;3221;48.858;10.128;2024-01-30T00:13:00;2.97;;;2.67;;
6376;SDS011;3221;48.858;10.128;2024-01-30T00:15:27;3.20;;;2.90;;
6376;SDS011;3221;48.858;10.128;2024-01-30T00:17:54;4.57;;;3.00;;
6376;SDS011;3221;48.858;10.128;2024-01-30T00:20:21;4.60;;;2.73;;
6376;SDS011;3221;48.858;10.128;2024-01-30T00:22:48;2.47;;;2.27;;
6376;SDS011;3221;48.858;10.128;2024-01-30T00:25:15;3.13;;;2.80;;
6376;SDS011;3221;48.858;10.128;2024-01-30T00:27:42;2.70;;;2.30;;
6376;SDS011;3221;48.858;10.128;2024-01-30T00:30:09;9.37;;;4.53;;
6376;SDS011;3221;48.858;10.128;2024-01-30T00:32:37;2.30;;;2.10;;
6376;SDS011;3221;48.858;10.128;2024-01-30T00:35:04;13.70;;;5.77;;
6376;SDS011;3221;48.858;10.128;2024-01-30T00:37:31;3.67;;;2.70;;
6376;SDS011;3221;48.858;10.128;2024-01-30T00:39:58;6.77;;;3.43;;
6376;SDS011;3221;48.858;10.128;2024-01-30T00:42:25;3.10;;;2.50;;
6376;SDS011;3221;48.858;10.128;2024-01-30T00:44:52;3.60;;;2.57;;
6376;SDS011;3221;48.858;10.128;2024-01-30T00:47:19;3.33;;;2.60;;
6376;SDS011;3221;48.858;10.128;2024-01-30T00:49:46;4.13;;;2.70;;
6376;SDS011;3221;48.858;10.128;2024-01-30T00:52:13;2.87;;;2.20;;
6376;SDS011;3221;48.858;10.128;2024-01-30T00:54:40;2.50;;;2.07;;
6376;SDS011;3221;48.858;10.128;2024-01-30T00:57:07;8.70;;;4.33;;
6376;SDS011;3221;48.858;10.128;2024-01-30T00:59:34;3.07;;;2.63;;
6376;SDS011;3221;48.858;10.128;2024-01-30T01:02:01;2.70;;;1.90;;
6376;SDS011;3221;48.858;10.128;2024-01-30T01:04:28;7.50;;;3.20;;
6376;SDS011;3221;48.858;10.128;2024-01-30T01:06:55;8.00;;;4.27;;
6376;SDS011;3221;48.858;10.128;2024-01-30T01:09:22;2.90;;;2.40;;
6376;SDS011;3221;48.858;10.128;2024-01-30T01:11:49;5.40;;;2.87;;
6376;SDS011;3221;48.858;10.128;2024-01-30T01:14:16;2.37;;;2.07;;
6376;SDS011;3221;48.858;10.128;2024-01-30T01:16:43;2.53;;;2.00;;
6376;SDS011;3221;48.858;10.128;2024-01-30T01:19:10;2.27;;;2.00;;
6376;SDS011;3221;48.858;10.128;2024-01-30T01:21:37;5.03;;;2.97;;
6376;SDS011;3221;48.858;10.128;2024-01-30T01:24:04;2.13;;;1.93;;
6376;SDS011;3221;48.858;10.128;2024-01-30T01:26:32;3.63;;;2.67;;
6376;SDS011;3221;48.858;10.128;2024-01-30T01:28:58;2.00;;;1.80;;
6376;SDS011;3221;48.858;10.128;2024-01-30T01:31:25;2.90;;;2.20;;
6376;SDS011;3221;48.858;10.128;2024-01-30T01:33:56;2.30;;;1.90;;
6376;SDS011;3221;48.858;10.128;2024-01-30T01:36:23;2.67;;;2.10;;
6376;SDS011;3221;48.858;10.128;2024-01-30T01:38:50;6.60;;;3.53;;
6376;SDS011;3221;48.858;10.128;2024-01-30T01:41:17;2.63;;;2.27;;
6376;SDS011;3221;48.858;10.128;2024-01-30T01:43:44;3.33;;;1.90;;
6376;SDS011;3221;48.858;10.128;2024-01-30T01:46:11;1.77;;;1.67;;
6376;SDS011;3221;48.858;10.128;2024-01-30T01:48:39;1.90;;;1.80;;
6376;SDS011;3221;48.858;10.128;2024-01-30T01:51:06;2.00;;;1.80;;
6376;SDS011;3221;48.858;10.128;2024-01-30T01:53:34;3.27;;;2.70;;
6376;SDS011;3221;48.858;10.128;2024-01-30T01:56:01;2.20;;;1.90;;
6376;SDS011;3221;48.858;10.128;2024-01-30T01:58:28;4.13;;;3.03;;
6376;SDS011;3221;48.858;10.128;2024-01-30T02:00:56;2.70;;;2.00;;
6376;SDS011;3221;48.858;10.128;2024-01-30T02:03:25;4.10;;;2.47;;
6376;SDS011;3221;48.858;10.128;2024-01-30T02:05:52;2.13;;;1.93;;
6376;SDS011;3221;48.858;10.128;2024-01-30T02:08:20;2.60;;;2.00;;
6376;SDS011;3221;48.858;10.128;2024-01-30T02:10:47;2.13;;;1.93;;
6376;SDS011;3221;48.858;10.128;2024-01-30T02:13:14;1.67;;;1.57;;
6376;SDS011;3221;48.858;10.128;2024-01-30T02:15:41;1.83;;;1.57;;
6376;SDS011;3221;48.858;10.128;2024-01-30T02:18:08;2.40;;;2.20;;
6376;SDS011;3221;48.858;10.128;2024-01-30T02:20:35;2.47;;;2.20;;
6376;SDS011;3221;48.858;10.128;2024-01-30T02:23:03;2.37;;;2.17;;
6376;SDS011;3221;48.858;10.128;2024-01-30T02:25:38;2.30;;;2.10;;
6376;SDS011;3221;48.858;10.128;2024-01-30T02:28:13;2.40;;;2.20;;
6376;SDS011;3221;48.858;10.128;2024-01-30T02:30:40;1.80;;;1.70;;
6376;SDS011;3221;48.858;10.128;2024-01-30T02:33:09;1.83;;;1.70;;
6376;SDS011;3221;48.858;10.128;2024-01-30T02:35:36;2.20;;;2.00;;
6376;SDS011;3221;48.858;10.128;2024-01-30T02:38:03;2.27;;;2.03;;
6376;SDS011;3221;48.858;10.128;2024-01-30T02:40:30;2.33;;;1.97;;
6376;SDS011;3221;48.858;10.128;2024-01-30T02:42:58;2.33;;;2.13;;
6376;SDS011;3221;48.858;10.128;2024-01-30T02:45:26;2.67;;;1.93;;
6376;SDS011;3221;48.858;10.128;2024-01-30T02:47:53;2.53;;;2.07;;
6376;SDS011;3221;48.858;10.128;2024-01-30T02:50:20;2.20;;;2.00;;
6376;SDS011;3221;48.858;10.128;2024-01-30T02:52:47;2.30;;;2.03;;
6376;SDS011;3221;48.858;10.128;2024-01-30T02:55:14;2.40;;;2.07;;
6376;SDS011;3221;48.858;10.128;2024-01-30T02:57:44;2.60;;;2.40;;
6376;SDS011;3221;48.858;10.128;2024-01-30T03:00:11;2.70;;;2.33;;
6376;SDS011;3221;48.858;10.128;2024-01-30T03:02:38;2.40;;;2.20;;
6376;SDS011;3221;48.858;10.128;2024-01-30T03:05:06;2.67;;;2.30;;
6376;SDS011;3221;48.858;10.128;2024-01-30T03:07:34;2.43;;;2.23;;
6376;SDS011;3221;48.858;10.128;2024-01-30T03:10:01;2.47;;;2.07;;
6376;SDS011;3221;48.858;10.128;2024-01-30T03:12:28;2.63;;;2.00;;
6376;SDS011;3221;48.858;10.128;2024-01-30T03:14:55;2.10;;;1.97;;
6376;SDS011;3221;48.858;10.128;2024-01-30T03:17:22;6.00;;;2.40;;
6376;SDS011;3221;48.858;10.128;2024-01-30T03:19:50;2.27;;;2.00;;
6376;SDS011;3221;48.858;10.128;2024-01-30T03:22:18;2.53;;;2.33;;
6376;SDS011;3221;48.858;10.128;2024-01-30T03:24:44;2.97;;;2.10;;
6376;SDS011;3221;48.858;10.128;2024-01-30T03:27:11;2.20;;;2.00;;
6376;SDS011;3221;48.858;10.128;2024-01-30T03:29:38;2.77;;;2.20;;
6376;SDS011;3221;48.858;10.128;2024-01-30T03:32:05;2.30;;;2.07;;
6376;SDS011;3221;48.858;10.128;2024-01-30T03:34:32;2.37;;;2.17;;
6376;SDS011;3221;48.858;10.128;2024-01-30T03:36:59;3.07;;;2.30;;
6376;SDS011;3221;48.858;10.128;2024-01-30T03:39:26;3.43;;;2.50;;
6376;SDS011;3221;48.858;10.128;2024-01-30T03:41:53;2.70;;;2.10;;
6376;SDS011;3221;48.858;10.128;2024-01-30T03:44:20;4.20;;;2.63;;
6376;SDS011;3221;48.858;10.128;2024-01-30T03:46:47;2.30;;;2.10;;
6376;SDS011;3221;48.858;10.128;2024-01-30T03:49:14;3.07;;;2.37;;
6376;SDS011;3221;48.858;10.128;2024-01-30T03:51:41;2.40;;;2.20;;
6376;SDS011;3221;48.858;10.128;2024-01-30T03:54:08;2.40;;;2.10;;
6376;SDS011;3221;48.858;10.128;2024-01-30T03:56:36;2.67;;;2.10;;
6376;SDS011;3221;48.858;10.128;2024-01-30T03:59:02;2.20;;;2.00;;
6376;SDS011;3221;48.858;10.128;2024-01-30T04:01:29;3.40;;;2.37;;
6376;SDS011;3221;48.858;10.128;2024-01-30T04:03:56;3.13;;;2.10;;
6376;SDS011;3221;48.858;10.128;2024-01-30T04:06:24;2.87;;;2.30;;
6376;SDS011;3221;48.858;10.128;2024-01-30T04:08:50;2.83;;;2.00;;
6376;SDS011;3221;48.858;10.128;2024-01-30T04:11:18;2.17;;;1.90;;
6376;SDS011;3221;48.858;10.128;2024-01-30T04:13:46;2.23;;;1.90;;
6376;SDS011;3221;48.858;10.128;2024-01-30T04:16:21;3.47;;;1.80;;
6376;SDS011;3221;48.858;10.128;2024-01-30T04:18:49;2.83;;;2.50;;
6376;SDS011;3221;48.858;10.128;2024-01-30T04:21:17;2.27;;;2.07;;
6376;SDS011;3221;48.858;10.128;2024-01-30T04:23:44;2.40;;;2.20;;
6376;SDS011;3221;48.858;10.128;2024-01-30T04:26:12;3.33;;;2.37;;
6376;SDS011;3221;48.858;10.128;2024-01-30T04:28:40;2.50;;;2.30;;
6376;SDS011;3221;48.858;10.128;2024-01-30T04:31:08;2.77;;;2.47;;
6376;SDS011;3221;48.858;10.128;2024-01-30T04:33:35;2.90;;;2.33;;
6376;SDS011;3221;48.858;10.128;2024-01-30T04:36:02;3.00;;;2.40;;
6376;SDS011;3221;48.858;10.128;2024-01-30T04:38:30;2.33;;;2.13;;
6376;SDS011;3221;48.858;10.128;2024-01-30T04:40:57;2.40;;;2.20;;
6376;SDS011;3221;48.858;10.128;2024-01-30T04:43:24;4.07;;;2.30;;
6376;SDS011;3221;48.858;10.128;2024-01-30T04:45:52;3.27;;;2.33;;
6376;SDS011;3221;48.858;10.128;2024-01-30T04:48:19;3.00;;;2.70;;
6376;SDS011;3221;48.858;10.128;2024-01-30T04:50:46;3.07;;;2.60;;
6376;SDS011;3221;48.858;10.128;2024-01-30T04:53:13;3.57;;;2.83;;
6376;SDS011;3221;48.858;10.128;2024-01-30T04:55:40;3.67;;;2.80;;
6376;SDS011;3221;48.858;10.128;2024-01-30T04:58:07;3.20;;;2.60;;
6376;SDS011;3221;48.858;10.128;2024-01-30T05:00:34;3.10;;;2.77;;
6376;SDS011;3221;48.858;10.128;2024-01-30T05:03:01;3.23;;;2.43;;
6376;SDS011;3221;48.858;10.128;2024-01-30T05:05:28;3.07;;;2.60;;
6376;SDS011;3221;48.858;10.128;2024-01-30T05:07:55;4.23;;;2.87;;
6376;SDS011;3221;48.858;10.128;2024-01-30T05:10:22;3.77;;;2.80;;
6376;SDS011;3221;48.858;10.128;2024-01-30T05:12:49;2.73;;;2.50;;
6376;SDS011;3221;48.858;10.128;2024-01-30T05:15:16;3.20;;;2.80;;
6376;SDS011;3221;48.858;10.128;2024-01-30T05:17:43;3.53;;;3.20;;
6376;SDS011;3221;48.858;10.128;2024-01-30T05:20:10;2.87;;;2.60;;
6376;SDS011;3221;48.858;10.128;2024-01-30T05:22:38;3.43;;;2.70;;
6376;SDS011;3221;48.858;10.128;2024-01-30T05:25:12;3.10;;;2.80;;
6376;SDS011;3221;48.858;10.128;2024-01-30T05:27:39;3.13;;;2.83;;
6376;SDS011;3221;48.858;10.128;2024-01-30T05:30:06;3.53;;;2.60;;
6376;SDS011;3221;48.858;10.128;2024-01-30T05:32:34;3.53;;;3.00;;
6376;SDS011;3221;48.858;10.128;2024-01-30T05:35:01;3.00;;;2.70;;
6376;SDS011;3221;48.858;10.128;2024-01-30T05:37:28;4.07;;;2.90;;
6376;SDS011;3221;48.858;10.128;2024-01-30T05:39:55;3.57;;;2.97;;
6376;SDS011;3221;48.858;10.128;2024-01-30T05:42:22;4.00;;;3.10;;
6376;SDS011;3221;48.858;10.128;2024-01-30T05:44:49;2.90;;;2.70;;
6376;SDS011;3221;48.858;10.128;2024-01-30T05:47:16;3.27;;;2.70;;
6376;SDS011;3221;48.858;10.128;2024-01-30T05:49:43;3.73;;;3.00;;
6376;SDS011;3221;48.858;10.128;2024-01-30T05:52:10;5.03;;;3.00;;
6376;SDS011;3221;48.858;10.128;2024-01-30T05:54:37;5.00;;;2.73;;
6376;SDS011;3221;48.858;10.128;2024-01-30T05:57:04;2.73;;;2.47;;
6376;SDS011;3221;48.858;10.128;2024-01-30T05:59:31;3.73;;;2.90;;
6376;SDS011;3221;48.858;10.128;2024-01-30T06:01:58;4.07;;;3.10;;
6376;SDS011;3221;48.858;10.128;2024-01-30T06:04:26;3.13;;;2.80;;
6376;SDS011;3221;48.858;10.128;2024-01-30T06:06:53;3.37;;;2.40;;
6376;SDS011;3221;48.858;10.128;2024-01-30T06:09:20;2.90;;;2.50;;
6376;SDS011;3221;48.858;10.128;2024-01-30T06:11:47;3.23;;;2.70;;
6376;SDS011;3221;48.858;10.128;2024-01-30T06:14:14;4.50;;;3.00;;
6376;SDS011;3221;48.858;10.128;2024-01-30T06:16:41;2.60;;;2.40;;
6376;SDS011;3221;48.858;10.128;2024-01-30T06:19:08;3.93;;;2.57;;
6376;SDS011;3221;48.858;10.128;2024-01-30T06:21:35;2.80;;;2.50;;
6376;SDS011;3221;48.858;10.128;2024-01-30T06:24:03;3.43;;;2.97;;
6376;SDS011;3221;48.858;10.128;2024-01-30T06:26:30;4.23;;;2.40;;
6376;SDS011;3221;48.858;10.128;2024-01-30T06:28:57;3.33;;;3.00;;
6376;SDS011;3221;48.858;10.128;2024-01-30T06:31:24;6.93;;;3.00;;
6376;SDS011;3221;48.858;10.128;2024-01-30T06:33:51;3.17;;;2.60;;
6376;SDS011;3221;48.858;10.128;2024-01-30T06:36:18;4.03;;;3.00;;
6376;SDS011;3221;48.858;10.128;2024-01-30T06:38:45;3.50;;;2.87;;
6376;SDS011;3221;48.858;10.128;2024-01-30T06:41:12;2.90;;;2.40;;
6376;SDS011;3221;48.858;10.128;2024-01-30T06:43:39;3.03;;;2.63;;
6376;SDS011;3221;48.858;10.128;2024-01-30T06:46:06;3.10;;;2.60;;
6376;SDS011;3221;48.858;10.128;2024-01-30T06:48:33;2.70;;;2.37;;
6376;SDS011;3221;48.858;10.128;2024-01-30T06:50:59;2.50;;;2.30;;
6376;SDS011;3221;48.858;10.128;2024-01-30T06:53:26;2.97;;;2.50;;
6376;SDS011;3221;48.858;10.128;2024-01-30T06:55:53;2.70;;;2.50;;
6376;SDS011;3221;48.858;10.128;2024-01-30T06:58:20;2.50;;;2.23;;
6376;SDS011;3221;48.858;10.128;2024-01-30T07:00:47;3.10;;;2.60;;
6376;SDS011;3221;48.858;10.128;2024-01-30T07:03:14;3.50;;;2.60;;
6376;SDS011;3221;48.858;10.128;2024-01-30T07:05:41;3.73;;;2.47;;
6376;SDS011;3221;48.858;10.128;2024-01-30T07:08:09;3.93;;;2.80;;
6376;SDS011;3221;48.858;10.128;2024-01-30T07:10:35;3.10;;;2.30;;
6376;SDS011;3221;48.858;10.128;2024-01-30T07:13:02;9.17;;;3.20;;
6376;SDS011;3221;48.858;10.128;2024-01-30T07:15:31;4.10;;;2.47;;
6376;SDS011;3221;48.858;10.128;2024-01-30T07:17:58;3.47;;;2.80;;
6376;SDS011;3221;48.858;10.128;2024-01-30T07:20:25;2.50;;;2.17;;
6376;SDS011;3221;48.858;10.128;2024-01-30T07:22:52;3.00;;;2.40;;
6376;SDS011;3221;48.858;10.128;2024-01-30T07:25:19;4.20;;;2.50;;
6376;SDS011;3221;48.858;10.128;2024-01-30T07:27:48;2.90;;;2.40;;
6376;SDS011;3221;48.858;10.128;2024-01-30T07:30:14;2.63;;;2.43;;
6376;SDS011;3221;48.858;10.128;2024-01-30T07:32:43;3.30;;;2.60;;
6376;SDS011;3221;48.858;10.128;2024-01-30T07:35:10;2.80;;;2.50;;
6376;SDS011;3221;48.858;10.128;2024-01-30T07:37:37;4.60;;;2.33;;
6376;SDS011;3221;48.858;10.128;2024-01-30T07:40:05;3.20;;;2.50;;
6376;SDS011;3221;48.858;10.128;2024-01-30T07:42:33;3.93;;;2.77;;
6376;SDS011;3221;48.858;10.128;2024-01-30T07:45:00;3.00;;;2.40;;
6376;SDS011;3221;48.858;10.128;2024-01-30T07:47:27;2.70;;;2.23;;
6376;SDS011;3221;48.858;10.128;2024-01-30T07:49:54;4.67;;;2.70;;
6376;SDS011;3221;48.858;10.128;2024-01-30T07:52:21;3.70;;;2.40;;
6376;SDS011;3221;48.858;10.128;2024-01-30T07:54:48;3.70;;;2.77;;
6376;SDS011;3221;48.858;10.128;2024-01-30T07:57:15;3.87;;;2.90;;
6376;SDS011;3221;48.858;10.128;2024-01-30T07:59:43;4.00;;;2.87;;
6376;SDS011;3221;48.858;10.128;2024-01-30T08:02:13;3.87;;;2.90;;
6376;SDS011;3221;48.858;10.128;2024-01-30T08:04:41;3.30;;;2.40;;
6376;SDS011;3221;48.858;10.128;2024-01-30T08:07:08;3.30;;;2.73;;
6376;SDS011;3221;48.858;10.128;2024-01-30T08:09:35;3.40;;;3.00;;
6376;SDS011;3221;48.858;10.128;2024-01-30T08:12:02;2.50;;;2.30;;
6376;SDS011;3221;48.858;10.128;2024-01-30T08:14:29;5.00;;;2.40;;
6376;SDS011;3221;48.858;10.128;2024-01-30T08:16:56;3.57;;;2.50;;
6376;SDS011;3221;48.858;10.128;2024-01-30T08:19:23;3.33;;;2.43;;
6376;SDS011;3221;48.858;10.128;2024-01-30T08:21:50;4.00;;;2.30;;
6376;SDS011;3221;48.858;10.128;2024-01-30T08:24:17;2.27;;;2.07;;
6376;SDS011;3221;48.858;10.128;2024-01-30T08:26:44;4.07;;;2.60;;
6376;SDS011;3221;48.858;10.128;2024-01-30T08:29:11;6.57;;;2.50;;
6376;SDS011;3221;48.858;10.128;2024-01-30T08:31:38;2.30;;;2.10;;
6376;SDS011;3221;48.858;10.128;2024-01-30T08:34:05;3.20;;;2.40;;
6376;SDS011;3221;48.858;10.128;2024-01-30T08:36:32;2.80;;;2.37;;
6376;SDS011;3221;48.858;10.128;2024-01-30T08:38:59;2.80;;;2.30;;
6376;SDS011;3221;48.858;10.128;2024-01-30T08:41:30;3.03;;;2.30;;
6376;SDS011;3221;48.858;10.128;2024-01-30T08:43:57;3.27;;;2.20;;
6376;SDS011;3221;48.858;10.128;2024-01-30T08:46:24;2.50;;;2.30;;
6376;SDS011;3221;48.858;10.128;2024-01-30T08:48:51;2.80;;;2.50;;
6376;SDS011;3221;48.858;10.128;2024-01-30T08:51:18;2.27;;;2.07;;
6376;SDS011;3221;48.858;10.128;2024-01-30T08:53:45;2.90;;;2.37;;
6376;SDS011;3221;48.858;10.128;2024-01-30T08:56:12;5.17;;;2.20;;
6376;SDS011;3221;48.858;10.128;2024-01-30T08:58:40;4.00;;;2.30;;
6376;SDS011;3221;48.858;10.128;2024-01-30T09:01:06;4.63;;;2.27;;
6376;SDS011;3221;48.858;10.128;2024-01-30T09:03:33;4.17;;;2.50;;
6376;SDS011;3221;48.858;10.128;2024-01-30T09:06:00;2.83;;;2.30;;
6376;SDS011;3221;48.858;10.128;2024-01-30T09:08:27;2.80;;;2.50;;
6376;SDS011;3221;48.858;10.128;2024-01-30T09:10:54;3.37;;;2.70;;
6376;SDS011;3221;48.858;10.128;2024-01-30T09:13:21;4.17;;;2.50;;
6376;SDS011;3221;48.858;10.128;2024-01-30T09:15:48;3.00;;;2.50;;
6376;SDS011;3221;48.858;10.128;2024-01-30T09:18:15;2.77;;;2.57;;
6376;SDS011;3221;48.858;10.128;2024-01-30T09:20:42;2.87;;;2.53;;
6376;SDS011;3221;48.858;10.128;2024-01-30T09:23:09;3.17;;;2.57;;
6376;SDS011;3221;48.858;10.128;2024-01-30T09:25:37;2.80;;;2.47;;
6376;SDS011;3221;48.858;10.128;2024-01-30T09:28:04;3.53;;;3.00;;
6376;SDS011;3221;48.858;10.128;2024-01-30T09:30:31;4.53;;;2.80;;
6376;SDS011;3221;48.858;10.128;2024-01-30T09:32:58;3.10;;;2.50;;
6376;SDS011;3221;48.858;10.128;2024-01-30T09:35:25;3.00;;;2.70;;
6376;SDS011;3221;48.858;10.128;2024-01-30T09:37:52;3.33;;;2.60;;
6376;SDS011;3221;48.858;10.128;2024-01-30T09:40:19;2.50;;;2.30;;
6376;SDS011;3221;48.858;10.128;2024-01-30T09:42:47;3.97;;;3.20;;
6376;SDS011;3221;48.858;10.128;2024-01-30T09:45:21;2.97;;;2.67;;
6376;SDS011;3221;48.858;10.128;2024-01-30T09:47:50;4.10;;;3.00;;
6376;SDS011;3221;48.858;10.128;2024-01-30T09:50:18;3.30;;;2.70;;
6376;SDS011;3221;48.858;10.128;2024-01-30T09:52:46;2.73;;;2.47;;
6376;SDS011;3221;48.858;10.128;2024-01-30T09:55:14;2.80;;;2.40;;
6376;SDS011;3221;48.858;10.128;2024-01-30T09:57:41;2.60;;;2.40;;
6376;SDS011;3221;48.858;10.128;2024-01-30T10:00:09;2.67;;;2.43;;
6376;SDS011;3221;48.858;10.128;2024-01-30T10:02:39;4.00;;;2.27;;
6376;SDS011;3221;48.858;10.128;2024-01-30T10:05:07;2.60;;;2.20;;
6376;SDS011;3221;48.858;10.128;2024-01-30T10:07:35;3.10;;;2.60;;
6376;SDS011;3221;48.858;10.128;2024-01-30T10:10:02;2.70;;;2.13;;
6376;SDS011;3221;48.858;10.128;2024-01-30T10:12:29;3.10;;;2.37;;
6376;SDS011;3221;48.858;10.128;2024-01-30T10:14:56;3.13;;;2.63;;
6376;SDS011;3221;48.858;10.128;2024-01-30T10:17:25;2.37;;;2.17;;
6376;SDS011;3221;48.858;10.128;2024-01-30T10:19:59;3.10;;;2.70;;
6376;SDS011;3221;48.858;10.128;2024-01-30T10:22:27;3.10;;;2.70;;
6376;SDS011;3221;48.858;10.128;2024-01-30T10:24:55;3.10;;;2.57;;
6376;SDS011;3221;48.858;10.128;2024-01-30T10:27:25;3.10;;;2.80;;
6376;SDS011;3221;48.858;10.128;2024-01-30T10:29:56;3.10;;;2.57;;
6376;SDS011;3221;48.858;10.128;2024-01-30T10:32:23;4.90;;;2.67;;
6376;SDS011;3221;48.858;10.128;2024-01-30T10:34:50;4.17;;;3.07;;
6376;SDS011;3221;48.858;10.128;2024-01-30T10:37:17;5.00;;;3.60;;
6376;SDS011;3221;48.858;10.128;2024-01-30T10:39:48;3.10;;;2.80;;
6376;SDS011;3221;48.858;10.128;2024-01-30T10:42:17;4.23;;;3.63;;
6376;SDS011;3221;48.858;10.128;2024-01-30T10:47:12;4.50;;;3.53;;
6376;SDS011;3221;48.858;10.128;2024-01-30T10:49:44;14.40;;;4.27;;
6376;SDS011;3221;48.858;10.128;2024-01-30T10:52:13;6.10;;;3.70;;
6376;SDS011;3221;48.858;10.128;2024-01-30T10:54:43;4.47;;;3.23;;
6376;SDS011;3221;48.858;10.128;2024-01-30T10:57:12;5.97;;;3.00;;
6376;SDS011;3221;48.858;10.128;2024-01-30T10:59:39;4.17;;;3.33;;
6376;SDS011;3221;48.858;10.128;2024-01-30T11:02:07;4.17;;;3.53;;
6376;SDS011;3221;48.858;10.128;2024-01-30T11:04:38;4.83;;;2.87;;
6376;SDS011;3221;48.858;10.128;2024-01-30T11:07:14;4.13;;;2.97;;
6376;SDS011;3221;48.858;10.128;2024-01-30T11:09:51;3.83;;;3.00;;
6376;SDS011;3221;48.858;10.128;2024-01-30T11:12:23;4.23;;;3.20;;
6376;SDS011;3221;48.858;10.128;2024-01-30T11:15:04;3.43;;;3.13;;
6376;SDS011;3221;48.858;10.128;2024-01-30T11:20:20;7.03;;;5.03;;
6376;SDS011;3221;48.858;10.128;2024-01-30T11:22:51;6.70;;;4.67;;
6376;SDS011;3221;48.858;10.128;2024-01-30T11:25:19;6.77;;;4.30;;
6376;SDS011;3221;48.858;10.128;2024-01-30T11:27:49;6.10;;;4.73;;
6376;SDS011;3221;48.858;10.128;2024-01-30T11:30:30;7.20;;;5.03;;
6376;SDS011;3221;48.858;10.128;2024-01-30T11:33:01;8.27;;;5.73;;
6376;SDS011;3221;48.858;10.128;2024-01-30T11:35:37;6.13;;;4.60;;
6376;SDS011;3221;48.858;10.128;2024-01-30T11:38:07;5.60;;;4.40;;
6376;SDS011;3221;48.858;10.128;2024-01-30T11:40:36;4.63;;;4.00;;
6376;SDS011;3221;48.858;10.128;2024-01-30T11:43:04;4.83;;;3.67;;
6376;SDS011;3221;48.858;10.128;2024-01-30T11:45:33;4.67;;;3.40;;
6376;SDS011;3221;48.858;10.128;2024-01-30T11:48:02;4.47;;;3.30;;
6376;SDS011;3221;48.858;10.128;2024-01-30T11:50:33;4.93;;;3.87;;
6376;SDS011;3221;48.858;10.128;2024-01-30T11:53:01;5.63;;;4.30;;
6376;SDS011;3221;48.858;10.128;2024-01-30T11:55:28;4.90;;;3.70;;
6376;SDS011;3221;48.858;10.128;2024-01-30T11:58:00;5.40;;;3.67;;
6376;SDS011;3221;48.858;10.128;2024-01-30T12:00:28;5.03;;;3.87;;
6376;SDS011;3221;48.858;10.128;2024-01-30T12:02:57;6.67;;;4.00;;
6376;SDS011;3221;48.858;10.128;2024-01-30T12:05:25;5.50;;;3.83;;
6376;SDS011;3221;48.858;10.128;2024-01-30T12:07:52;5.67;;;3.63;;
6376;SDS011;3221;48.858;10.128;2024-01-30T12:10:21;9.60;;;5.17;;
6376;SDS011;3221;48.858;10.128;2024-01-30T12:12:49;6.70;;;4.63;;
6376;SDS011;3221;48.858;10.128;2024-01-30T12:15:17;8.30;;;5.03;;
6376;SDS011;3221;48.858;10.128;2024-01-30T12:17:48;5.63;;;4.27;;
6376;SDS011;3221;48.858;10.128;2024-01-30T12:20:17;5.47;;;4.40;;
6376;SDS011;3221;48.858;10.128;2024-01-30T12:22:46;7.80;;;4.17;;
6376;SDS011;3221;48.858;10.128;2024-01-30T12:25:15;4.73;;;3.70;;
6376;SDS011;3221;48.858;10.128;2024-01-30T12:27:44;5.13;;;3.90;;
6376;SDS011;3221;48.858;10.128;2024-01-30T12:30:18;5.43;;;3.53;;
6376;SDS011;3221;48.858;10.128;2024-01-30T12:32:49;4.67;;;3.50;;
6376;SDS011;3221;48.858;10.128;2024-01-30T12:35:18;6.10;;;3.60;;
6376;SDS011;3221;48.858;10.128;2024-01-30T12:37:47;4.93;;;3.50;;
6376;SDS011;3221;48.858;10.128;2024-01-30T12:40:15;3.80;;;3.37;;
6376;SDS011;3221;48.858;10.128;2024-01-30T12:42:43;4.70;;;3.20;;
6376;SDS011;3221;48.858;10.128;2024-01-30T12:45:16;5.03;;;3.50;;
6376;SDS011;3221;48.858;10.128;2024-01-30T12:47:47;3.77;;;3.20;;
6376;SDS011;3221;48.858;10.128;2024-01-30T12:50:14;6.50;;;3.40;;
6376;SDS011;3221;48.858;10.128;2024-01-30T12:52:43;5.40;;;3.63;;
6376;SDS011;3221;48.858;10.128;2024-01-30T12:55:14;4.47;;;3.40;;
6376;SDS011;3221;48.858;10.128;2024-01-30T12:57:41;6.10;;;4.90;;
6376;SDS011;3221;48.858;10.128;2024-01-30T13:00:09;4.93;;;3.83;;
6376;SDS011;3221;48.858;10.128;2024-01-30T13:02:36;5.43;;;4.10;;
6376;SDS011;3221;48.858;10.128;2024-01-30T13:05:03;4.40;;;3.90;;
6376;SDS011;3221;48.858;10.128;2024-01-30T13:07:31;4.70;;;3.57;;
6376;SDS011;3221;48.858;10.128;2024-01-30T13:09:59;5.23;;;3.20;;
6376;SDS011;3221;48.858;10.128;2024-01-30T13:12:30;3.93;;;3.50;;
6376;SDS011;3221;48.858;10.128;2024-01-30T13:14:59;3.97;;;3.50;;
6376;SDS011;3221;48.858;10.128;2024-01-30T13:17:31;5.07;;;3.50;;
6376;SDS011;3221;48.858;10.128;2024-01-30T13:19:58;3.57;;;3.27;;
6376;SDS011;3221;48.858;10.128;2024-01-30T13:22:36;4.07;;;3.40;;
6376;SDS011;3221;48.858;10.128;2024-01-30T13:25:05;4.10;;;3.17;;
6376;SDS011;3221;48.858;10.128;2024-01-30T13:27:33;4.83;;;3.30;;
6376;SDS011;3221;48.858;10.128;2024-01-30T13:30:00;4.30;;;3.10;;
6376;SDS011;3221;48.858;10.128;2024-01-30T13:32:27;4.00;;;2.80;;
6376;SDS011;3221;48.858;10.128;2024-01-30T13:34:54;3.83;;;3.30;;
6376;SDS011;3221;48.858;10.128;2024-01-30T13:37:22;4.83;;;3.47;;
6376;SDS011;3221;48.858;10.128;2024-01-30T13:39:49;3.97;;;3.20;;
6376;SDS011;3221;48.858;10.128;2024-01-30T13:42:16;3.83;;;3.40;;
6376;SDS011;3221;48.858;10.128;2024-01-30T13:44:43;4.60;;;3.30;;
6376;SDS011;3221;48.858;10.128;2024-01-30T13:47:10;5.33;;;3.60;;
6376;SDS011;3221;48.858;10.128;2024-01-30T13:49:37;4.23;;;3.47;;
6376;SDS011;3221;48.858;10.128;2024-01-30T13:52:04;4.23;;;3.13;;
6376;SDS011;3221;48.858;10.128;2024-01-30T13:54:32;5.53;;;3.60;;
6376;SDS011;3221;48.858;10.128;2024-01-30T13:56:59;6.10;;;3.70;;
6376;SDS011;3221;48.858;10.128;2024-01-30T13:59:26;4.23;;;3.53;;
6376;SDS011;3221;48.858;10.128;2024-01-30T14:01:53;6.23;;;3.87;;
6376;SDS011;3221;48.858;10.128;2024-01-30T14:04:20;4.40;;;3.67;;
6376;SDS011;3221;48.858;10.128;2024-01-30T14:06:47;4.67;;;3.33;;
6376;SDS011;3221;48.858;10.128;2024-01-30T14:09:26;4.57;;;3.40;;
6376;SDS011;3221;48.858;10.128;2024-01-30T14:11:53;7.07;;;3.73;;
6376;SDS011;3221;48.858;10.128;2024-01-30T14:14:20;5.83;;;3.70;;
6376;SDS011;3221;48.858;10.128;2024-01-30T14:16:46;3.80;;;3.37;;
6376;SDS011;3221;48.858;10.128;2024-01-30T14:19:13;4.17;;;3.70;;
6376;SDS011;3221;48.858;10.128;2024-01-30T14:21:40;5.60;;;3.57;;
6376;SDS011;3221;48.858;10.128;2024-01-30T14:24:10;4.20;;;3.80;;
6376;SDS011;3221;48.858;10.128;2024-01-30T14:26:36;4.57;;;3.80;;
6376;SDS011;3221;48.858;10.128;2024-01-30T14:29:04;4.63;;;4.00;;
6376;SDS011;3221;48.858;10.128;2024-01-30T14:31:31;7.43;;;3.80;;
6376;SDS011;3221;48.858;10.128;2024-01-30T14:33:58;5.00;;;3.97;;
6376;SDS011;3221;48.858;10.128;2024-01-30T14:36:26;4.63;;;3.80;;
6376;SDS011;3221;48.858;10.128;2024-01-30T14:38:54;8.30;;;4.33;;
6376;SDS011;3221;48.858;10.128;2024-01-30T14:41:21;5.20;;;4.20;;
6376;SDS011;3221;48.858;10.128;2024-01-30T14:43:48;6.03;;;3.90;;
6376;SDS011;3221;48.858;10.128;2024-01-30T14:46:16;6.33;;;4.13;;
6376;SDS011;3221;48.858;10.128;2024-01-30T14:48:43;5.13;;;4.07;;
6376;SDS011;3221;48.858;10.128;2024-01-30T14:51:10;5.23;;;3.73;;
6376;SDS011;3221;48.858;10.128;2024-01-30T14:53:37;5.30;;;3.80;;
6376;SDS011;3221;48.858;10.128;2024-01-30T14:56:04;6.27;;;4.47;;
6376;SDS011;3221;48.858;10.128;2024-01-30T14:58:31;4.30;;;3.90;;
6376;SDS011;3221;48.858;10.128;2024-01-30T15:00:58;4.60;;;4.03;;
6376;SDS011;3221;48.858;10.128;2024-01-30T15:03:27;7.10;;;3.77;;
6376;SDS011;3221;48.858;10.128;2024-01-30T15:05:55;4.27;;;3.60;;
6376;SDS011;3221;48.858;10.128;2024-01-30T15:08:22;4.27;;;3.73;;